sensor_id;sensor_type;location;lat;lon;timestamp;pressure;altitude;pressure_sealevel;temperature;humidity
5283;BME280;15376;48.540;9.268;2023-02-13T00:00:32;99432.56;;;-1.84;100.00
5283;BME280;15376;48.540;9.268;2023-02-13T00:02:58;99428.88;;;-1.78;100.00
5283;BME280;15376;48.540;9.268;2023-02-13T00:05:23;99425.16;;;-1.71;100.00
5283;BME280;15376;48.540;9.268;2023-02-13T00:07:48;99427.63;;;-1.68;100.00
5283;BME280;15376;48.540;9.268;2023-02-13T00:10:14;99423.63;;;-1.77;100.00
5283;BME280;15376;48.540;9.268;2023-02-13T00:12:40;99414.78;;;-1.73;100.00
5283;BME280;15376;48.540;9.268;2023-02-13T00:15:06;99422.25;;;-1.63;100.00
5283;BME280;15376;48.540;9.268;2023-02-13T00:17:32;99415.97;;;-2.03;100.00
5283;BME280;15376;48.540;9.268;2023-02-13T00:19:57;99393.44;;;-2.04;100.00
5283;BME280;15376;48.540;9.268;2023-02-13T00:22:23;99415.47;;;-1.91;100.00
5283;BME280;15376;48.540;9.268;2023-02-13T00:24:48;99421.59;;;-1.92;100.00
5283;BME280;15376;48.540;9.268;2023-02-13T00:27:14;99422.00;;;-2.03;100.00
5283;BME280;15376;48.540;9.268;2023-02-13T00:29:39;99400.34;;;-1.81;100.00
5283;BME280;15376;48.540;9.268;2023-02-13T00:32:05;99420.34;;;-1.82;100.00
5283;BME280;15376;48.540;9.268;2023-02-13T00:34:30;99431.25;;;-1.72;100.00
5283;BME280;15376;48.540;9.268;2023-02-13T00:36:56;99411.84;;;-1.63;100.00
5283;BME280;15376;48.540;9.268;2023-02-13T00:39:21;99420.13;;;-1.76;100.00
5283;BME280;15376;48.540;9.268;2023-02-13T00:41:47;99391.63;;;-2.02;100.00
5283;BME280;15376;48.540;9.268;2023-02-13T00:44:12;99420.91;;;-1.74;100.00
5283;BME280;15376;48.540;9.268;2023-02-13T00:46:37;99394.75;;;-1.71;100.00
5283;BME280;15376;48.540;9.268;2023-02-13T00:49:03;99393.22;;;-1.76;100.00
5283;BME280;15376;48.540;9.268;2023-02-13T00:51:29;99402.50;;;-1.69;100.00
5283;BME280;15376;48.540;9.268;2023-02-13T00:53:54;99427.69;;;-1.70;100.00
5283;BME280;15376;48.540;9.268;2023-02-13T00:56:20;99424.81;;;-1.62;100.00
5283;BME280;15376;48.540;9.268;2023-02-13T00:58:46;99426.50;;;-1.61;100.00
5283;BME280;15376;48.540;9.268;2023-02-13T01:01:11;99426.66;;;-1.65;100.00
5283;BME280;15376;48.540;9.268;2023-02-13T01:03:37;99424.31;;;-1.72;100.00
5283;BME280;15376;48.540;9.268;2023-02-13T01:06:02;99420.84;;;-1.72;100.00
5283;BME280;15376;48.540;9.268;2023-02-13T01:08:28;99436.34;;;-1.69;100.00
5283;BME280;15376;48.540;9.268;2023-02-13T01:10:54;99425.66;;;-1.85;100.00
5283;BME280;15376;48.540;9.268;2023-02-13T01:13:19;99416.50;;;-1.95;100.00
5283;BME280;15376;48.540;9.268;2023-02-13T01:15:45;99429.28;;;-1.89;100.00
5283;BME280;15376;48.540;9.268;2023-02-13T01:18:13;99426.13;;;-1.97;100.00
5283;BME280;15376;48.540;9.268;2023-02-13T01:20:38;99422.50;;;-1.93;100.00
5283;BME280;15376;48.540;9.268;2023-02-13T01:23:04;99422.28;;;-2.10;100.00
5283;BME280;15376;48.540;9.268;2023-02-13T01:25:29;99421.28;;;-2.06;100.00
5283;BME280;15376;48.540;9.268;2023-02-13T01:27:55;99421.19;;;-1.81;100.00
5283;BME280;15376;48.540;9.268;2023-02-13T01:30:20;99420.78;;;-1.94;100.00
5283;BME280;15376;48.540;9.268;2023-02-13T01:32:46;99421.38;;;-2.09;100.00
5283;BME280;15376;48.540;9.268;2023-02-13T01:35:13;99421.50;;;-2.12;100.00
5283;BME280;15376;48.540;9.268;2023-02-13T01:37:39;99418.09;;;-2.14;100.00
5283;BME280;15376;48.540;9.268;2023-02-13T01:40:08;99411.88;;;-2.10;100.00
5283;BME280;15376;48.540;9.268;2023-02-13T01:42:36;99410.50;;;-2.20;100.00
5283;BME280;15376;48.540;9.268;2023-02-13T01:47:57;99407.00;;;-2.43;100.00
5283;BME280;15376;48.540;9.268;2023-02-13T01:52:58;99391.19;;;-2.61;100.00
5283;BME280;15376;48.540;9.268;2023-02-13T01:55:25;99402.03;;;-2.49;100.00
5283;BME280;15376;48.540;9.268;2023-02-13T01:58:05;99392.41;;;-2.47;100.00
5283;BME280;15376;48.540;9.268;2023-02-13T02:00:32;99404.78;;;-2.30;100.00
5283;BME280;15376;48.540;9.268;2023-02-13T02:03:04;99407.22;;;-2.25;100.00
5283;BME280;15376;48.540;9.268;2023-02-13T02:05:33;99396.13;;;-2.30;100.00
5283;BME280;15376;48.540;9.268;2023-02-13T02:08:02;99407.00;;;-2.43;100.00
5283;BME280;15376;48.540;9.268;2023-02-13T02:10:29;99396.03;;;-2.51;100.00
5283;BME280;15376;48.540;9.268;2023-02-13T02:13:02;99405.13;;;-2.39;100.00
5283;BME280;15376;48.540;9.268;2023-02-13T02:15:29;99398.09;;;-2.37;100.00
5283;BME280;15376;48.540;9.268;2023-02-13T02:17:55;99400.59;;;-2.34;100.00
5283;BME280;15376;48.540;9.268;2023-02-13T02:31:22;99401.66;;;-2.40;100.00
5283;BME280;15376;48.540;9.268;2023-02-13T02:34:16;99409.59;;;-2.67;100.00
5283;BME280;15376;48.540;9.268;2023-02-13T02:45:27;99404.31;;;-2.64;100.00
5283;BME280;15376;48.540;9.268;2023-02-13T02:48:04;99389.41;;;-2.84;100.00
5283;BME280;15376;48.540;9.268;2023-02-13T02:51:06;99405.75;;;-2.81;100.00
5283;BME280;15376;48.540;9.268;2023-02-13T02:53:45;99390.34;;;-2.62;100.00
5283;BME280;15376;48.540;9.268;2023-02-13T02:56:41;99383.25;;;-2.82;100.00
5283;BME280;15376;48.540;9.268;2023-02-13T02:59:12;99413.56;;;-2.81;100.00
5283;BME280;15376;48.540;9.268;2023-02-13T03:01:59;99416.75;;;-2.74;100.00
5283;BME280;15376;48.540;9.268;2023-02-13T03:04:50;99414.84;;;-2.69;100.00
5283;BME280;15376;48.540;9.268;2023-02-13T03:07:36;99416.66;;;-2.71;100.00
5283;BME280;15376;48.540;9.268;2023-02-13T03:10:06;99387.41;;;-3.03;100.00
5283;BME280;15376;48.540;9.268;2023-02-13T03:12:53;99404.16;;;-2.85;100.00
5283;BME280;15376;48.540;9.268;2023-02-13T03:15:42;99418.34;;;-2.70;100.00
5283;BME280;15376;48.540;9.268;2023-02-13T03:18:28;99425.34;;;-2.72;100.00
5283;BME280;15376;48.540;9.268;2023-02-13T03:21:16;99428.66;;;-2.67;100.00
5283;BME280;15376;48.540;9.268;2023-02-13T03:24:16;99415.41;;;-2.84;100.00
5283;BME280;15376;48.540;9.268;2023-02-13T03:27:10;99436.19;;;-2.84;100.00
5283;BME280;15376;48.540;9.268;2023-02-13T03:29:44;99410.91;;;-3.06;100.00
5283;BME280;15376;48.540;9.268;2023-02-13T03:35:44;99439.59;;;-2.57;100.00
5283;BME280;15376;48.540;9.268;2023-02-13T03:38:37;99444.47;;;-2.48;100.00
5283;BME280;15376;48.540;9.268;2023-02-13T03:41:11;99425.63;;;-2.55;100.00
5283;BME280;15376;48.540;9.268;2023-02-13T03:46:26;99449.81;;;-2.78;100.00
5283;BME280;15376;48.540;9.268;2023-02-13T03:48:54;99445.06;;;-2.90;100.00
5283;BME280;15376;48.540;9.268;2023-02-13T03:54:32;99441.50;;;-2.87;100.00
5283;BME280;15376;48.540;9.268;2023-02-13T03:57:19;99466.41;;;-2.80;100.00
5283;BME280;15376;48.540;9.268;2023-02-13T04:00:09;99443.59;;;-2.98;100.00
5283;BME280;15376;48.540;9.268;2023-02-13T04:02:41;99455.41;;;-2.88;100.00
5283;BME280;15376;48.540;9.268;2023-02-13T04:05:19;99455.28;;;-2.85;100.00
5283;BME280;15376;48.540;9.268;2023-02-13T04:07:45;99448.69;;;-2.95;100.00
5283;BME280;15376;48.540;9.268;2023-02-13T04:10:13;99451.91;;;-2.87;100.00
5283;BME280;15376;48.540;9.268;2023-02-13T04:15:15;99446.38;;;-2.78;100.00
5283;BME280;15376;48.540;9.268;2023-02-13T04:17:52;99448.81;;;-2.74;100.00
5283;BME280;15376;48.540;9.268;2023-02-13T04:20:19;99447.81;;;-2.70;100.00
5283;BME280;15376;48.540;9.268;2023-02-13T04:22:46;99437.41;;;-2.70;100.00
5283;BME280;15376;48.540;9.268;2023-02-13T04:25:13;99449.88;;;-2.79;100.00
5283;BME280;15376;48.540;9.268;2023-02-13T04:27:39;99448.34;;;-2.85;100.00
5283;BME280;15376;48.540;9.268;2023-02-13T04:30:05;99431.41;;;-2.96;100.00
5283;BME280;15376;48.540;9.268;2023-02-13T04:32:50;99431.44;;;-2.98;100.00
5283;BME280;15376;48.540;9.268;2023-02-13T04:35:17;99441.91;;;-2.99;100.00
5283;BME280;15376;48.540;9.268;2023-02-13T04:37:42;99450.69;;;-3.04;100.00
5283;BME280;15376;48.540;9.268;2023-02-13T04:40:08;99448.19;;;-3.07;100.00
5283;BME280;15376;48.540;9.268;2023-02-13T04:42:33;99440.50;;;-3.10;100.00
5283;BME280;15376;48.540;9.268;2023-02-13T04:44:59;99438.41;;;-2.98;100.00
5283;BME280;15376;48.540;9.268;2023-02-13T04:47:24;99441.50;;;-2.87;100.00
5283;BME280;15376;48.540;9.268;2023-02-13T04:49:49;99438.56;;;-2.78;100.00
5283;BME280;15376;48.540;9.268;2023-02-13T04:52:15;99443.91;;;-2.81;100.00
5283;BME280;15376;48.540;9.268;2023-02-13T04:54:40;99433.59;;;-2.84;100.00
5283;BME280;15376;48.540;9.268;2023-02-13T04:57:05;99433.66;;;-2.86;100.00
5283;BME280;15376;48.540;9.268;2023-02-13T04:59:31;99438.25;;;-2.69;100.00
5283;BME280;15376;48.540;9.268;2023-02-13T05:01:56;99448.41;;;-2.61;100.00
5283;BME280;15376;48.540;9.268;2023-02-13T05:04:23;99449.25;;;-2.61;100.00
5283;BME280;15376;48.540;9.268;2023-02-13T05:06:49;99450.75;;;-2.54;100.00
5283;BME280;15376;48.540;9.268;2023-02-13T05:09:14;99450.53;;;-2.48;100.00
5283;BME280;15376;48.540;9.268;2023-02-13T05:11:40;99448.09;;;-2.52;100.00
5283;BME280;15376;48.540;9.268;2023-02-13T05:14:05;99461.34;;;-2.35;100.00
5283;BME280;15376;48.540;9.268;2023-02-13T05:16:31;99464.34;;;-2.46;100.00
5283;BME280;15376;48.540;9.268;2023-02-13T05:18:56;99438.31;;;-2.71;100.00
5283;BME280;15376;48.540;9.268;2023-02-13T05:21:21;99471.34;;;-2.48;100.00
5283;BME280;15376;48.540;9.268;2023-02-13T05:24:05;99447.84;;;-2.71;100.00
5283;BME280;15376;48.540;9.268;2023-02-13T05:26:31;99473.66;;;-2.65;100.00
5283;BME280;15376;48.540;9.268;2023-02-13T05:28:56;99460.16;;;-2.76;100.00
5283;BME280;15376;48.540;9.268;2023-02-13T05:31:40;99474.56;;;-2.66;100.00
5283;BME280;15376;48.540;9.268;2023-02-13T05:34:06;99458.66;;;-2.82;100.00
5283;BME280;15376;48.540;9.268;2023-02-13T05:36:31;99463.00;;;-2.82;100.00
5283;BME280;15376;48.540;9.268;2023-02-13T05:38:56;99468.25;;;-2.84;100.00
5283;BME280;15376;48.540;9.268;2023-02-13T05:41:22;99471.75;;;-2.85;100.00
5283;BME280;15376;48.540;9.268;2023-02-13T05:43:47;99464.19;;;-2.92;100.00
5283;BME280;15376;48.540;9.268;2023-02-13T05:46:12;99470.16;;;-2.89;100.00
5283;BME280;15376;48.540;9.268;2023-02-13T05:48:38;99475.34;;;-2.89;100.00
5283;BME280;15376;48.540;9.268;2023-02-13T05:51:03;99467.69;;;-2.93;100.00
5283;BME280;15376;48.540;9.268;2023-02-13T05:53:29;99474.41;;;-2.86;100.00
5283;BME280;15376;48.540;9.268;2023-02-13T05:55:54;99469.41;;;-2.92;100.00
5283;BME280;15376;48.540;9.268;2023-02-13T05:58:20;99454.00;;;-2.98;100.00
5283;BME280;15376;48.540;9.268;2023-02-13T06:00:46;99468.44;;;-2.90;100.00
5283;BME280;15376;48.540;9.268;2023-02-13T06:03:12;99436.50;;;-2.93;100.00
5283;BME280;15376;48.540;9.268;2023-02-13T06:05:37;99464.41;;;-2.74;100.00
5283;BME280;15376;48.540;9.268;2023-02-13T06:08:02;99462.28;;;-2.87;100.00
5283;BME280;15376;48.540;9.268;2023-02-13T06:10:28;99467.41;;;-2.84;100.00
5283;BME280;15376;48.540;9.268;2023-02-13T06:12:53;99462.19;;;-2.84;100.00
5283;BME280;15376;48.540;9.268;2023-02-13T06:15:18;99481.38;;;-2.88;100.00
5283;BME280;15376;48.540;9.268;2023-02-13T06:17:44;99484.88;;;-2.89;100.00
5283;BME280;15376;48.540;9.268;2023-02-13T06:20:09;99469.78;;;-3.05;100.00
5283;BME280;15376;48.540;9.268;2023-02-13T06:22:35;99457.03;;;-3.12;100.00
5283;BME280;15376;48.540;9.268;2023-02-13T06:25:00;99483.28;;;-2.93;100.00
5283;BME280;15376;48.540;9.268;2023-02-13T06:27:25;99475.34;;;-2.89;100.00
5283;BME280;15376;48.540;9.268;2023-02-13T06:29:51;99479.88;;;-2.95;100.00
5283;BME280;15376;48.540;9.268;2023-02-13T06:32:16;99480.88;;;-2.99;100.00
5283;BME280;15376;48.540;9.268;2023-02-13T06:34:42;99489.53;;;-2.99;100.00
5283;BME280;15376;48.540;9.268;2023-02-13T06:37:07;99490.75;;;-3.11;100.00
5283;BME280;15376;48.540;9.268;2023-02-13T06:39:32;99497.25;;;-3.24;100.00
5283;BME280;15376;48.540;9.268;2023-02-13T06:41:57;99468.78;;;-3.27;100.00
5283;BME280;15376;48.540;9.268;2023-02-13T06:44:23;99477.00;;;-3.41;100.00
5283;BME280;15376;48.540;9.268;2023-02-13T06:46:48;99459.94;;;-3.49;100.00
5283;BME280;15376;48.540;9.268;2023-02-13T06:49:13;99473.78;;;-3.21;100.00
5283;BME280;15376;48.540;9.268;2023-02-13T06:51:39;99464.13;;;-3.17;100.00
5283;BME280;15376;48.540;9.268;2023-02-13T06:54:04;99491.31;;;-3.01;100.00
5283;BME280;15376;48.540;9.268;2023-02-13T06:56:29;99492.19;;;-3.00;100.00
5283;BME280;15376;48.540;9.268;2023-02-13T06:58:55;99484.06;;;-3.18;100.00
5283;BME280;15376;48.540;9.268;2023-02-13T07:01:20;99489.97;;;-3.13;100.00
5283;BME280;15376;48.540;9.268;2023-02-13T07:03:45;99490.75;;;-3.11;100.00
5283;BME280;15376;48.540;9.268;2023-02-13T07:06:19;99492.25;;;-3.30;100.00
5283;BME280;15376;48.540;9.268;2023-02-13T07:08:45;99481.78;;;-3.27;100.00
5283;BME280;15376;48.540;9.268;2023-02-13T07:11:21;99490.47;;;-3.28;100.00
5283;BME280;15376;48.540;9.268;2023-02-13T07:13:47;99498.16;;;-3.25;100.00
5283;BME280;15376;48.540;9.268;2023-02-13T07:16:13;99496.25;;;-3.20;100.00
5283;BME280;15376;48.540;9.268;2023-02-13T07:18:39;99494.41;;;-3.16;100.00
5283;BME280;15376;48.540;9.268;2023-02-13T07:21:05;99495.88;;;-3.08;100.00
5283;BME280;15376;48.540;9.268;2023-02-13T07:23:31;99497.22;;;-2.96;100.00
5283;BME280;15376;48.540;9.268;2023-02-13T07:26:00;99500.38;;;-2.86;100.00
5283;BME280;15376;48.540;9.268;2023-02-13T07:28:27;99507.56;;;-2.68;100.00
5283;BME280;15376;48.540;9.268;2023-02-13T07:30:53;99487.47;;;-2.63;100.00
5283;BME280;15376;48.540;9.268;2023-02-13T07:33:19;99499.25;;;-2.53;100.00
5283;BME280;15376;48.540;9.268;2023-02-13T07:35:45;99504.34;;;-2.25;100.00
5283;BME280;15376;48.540;9.268;2023-02-13T07:38:11;99499.38;;;-2.06;100.00
5283;BME280;15376;48.540;9.268;2023-02-13T07:40:36;99499.63;;;-1.90;100.00
5283;BME280;15376;48.540;9.268;2023-02-13T07:43:01;99500.28;;;-1.84;100.00
5283;BME280;15376;48.540;9.268;2023-02-13T07:45:27;99494.72;;;-1.75;100.00
5283;BME280;15376;48.540;9.268;2023-02-13T07:47:56;99517.53;;;-1.58;100.00
5283;BME280;15376;48.540;9.268;2023-02-13T07:50:22;99513.78;;;-1.51;100.00
5283;BME280;15376;48.540;9.268;2023-02-13T07:52:58;99524.09;;;-1.48;100.00
5283;BME280;15376;48.540;9.268;2023-02-13T07:55:25;99512.59;;;-1.42;100.00
5283;BME280;15376;48.540;9.268;2023-02-13T07:57:50;99518.47;;;-1.37;100.00
5283;BME280;15376;48.540;9.268;2023-02-13T08:00:16;99508.97;;;-1.38;100.00
5283;BME280;15376;48.540;9.268;2023-02-13T08:02:42;99514.63;;;-1.27;100.00
5283;BME280;15376;48.540;9.268;2023-02-13T08:05:08;99510.09;;;-1.22;100.00
5283;BME280;15376;48.540;9.268;2023-02-13T08:07:34;99509.19;;;-1.21;100.00
5283;BME280;15376;48.540;9.268;2023-02-13T08:09:59;99514.13;;;-1.15;100.00
5283;BME280;15376;48.540;9.268;2023-02-13T08:12:44;99506.31;;;-1.15;100.00
5283;BME280;15376;48.540;9.268;2023-02-13T08:15:11;99484.13;;;-1.25;100.00
5283;BME280;15376;48.540;9.268;2023-02-13T08:17:36;99512.84;;;-1.05;100.00
5283;BME280;15376;48.540;9.268;2023-02-13T08:20:02;99513.59;;;-1.01;100.00
5283;BME280;15376;48.540;9.268;2023-02-13T08:22:27;99503.28;;;-1.04;100.00
5283;BME280;15376;48.540;9.268;2023-02-13T08:24:53;99503.94;;;-0.99;100.00
5283;BME280;15376;48.540;9.268;2023-02-13T08:27:18;99510.31;;;-0.84;100.00
5283;BME280;15376;48.540;9.268;2023-02-13T08:29:44;99515.25;;;-0.78;100.00
5283;BME280;15376;48.540;9.268;2023-02-13T08:32:09;99458.78;;;-0.99;100.00
5283;BME280;15376;48.540;9.268;2023-02-13T08:34:35;99512.81;;;-0.61;100.00
5283;BME280;15376;48.540;9.268;2023-02-13T08:37:01;99512.44;;;-0.52;100.00
5283;BME280;15376;48.540;9.268;2023-02-13T08:39:26;99501.81;;;-0.47;100.00
5283;BME280;15376;48.540;9.268;2023-02-13T08:41:52;99504.81;;;-0.36;100.00
5283;BME280;15376;48.540;9.268;2023-02-13T08:44:17;99500.97;;;-0.27;100.00
5283;BME280;15376;48.540;9.268;2023-02-13T08:46:42;99501.53;;;-0.21;100.00
5283;BME280;15376;48.540;9.268;2023-02-13T08:49:14;99496.66;;;-0.08;100.00
5283;BME280;15376;48.540;9.268;2023-02-13T08:51:42;99500.34;;;0.07;100.00
5283;BME280;15376;48.540;9.268;2023-02-13T08:54:07;99489.34;;;0.19;100.00
5283;BME280;15376;48.540;9.268;2023-02-13T08:56:33;99483.66;;;0.29;100.00
5283;BME280;15376;48.540;9.268;2023-02-13T08:58:59;99501.50;;;0.57;100.00
5283;BME280;15376;48.540;9.268;2023-02-13T09:01:24;99482.94;;;0.63;100.00
5283;BME280;15376;48.540;9.268;2023-02-13T09:03:50;99491.31;;;0.89;100.00
5283;BME280;15376;48.540;9.268;2023-02-13T09:06:15;99470.69;;;1.19;100.00
5283;BME280;15376;48.540;9.268;2023-02-13T09:08:40;99478.03;;;1.97;100.00
5283;BME280;15376;48.540;9.268;2023-02-13T09:11:06;99465.56;;;2.81;100.00
5283;BME280;15376;48.540;9.268;2023-02-13T09:13:32;99454.66;;;4.07;100.00
5283;BME280;15376;48.540;9.268;2023-02-13T09:15:59;99458.28;;;4.75;100.00
5283;BME280;15376;48.540;9.268;2023-02-13T09:18:25;99460.63;;;5.46;100.00
5283;BME280;15376;48.540;9.268;2023-02-13T09:20:59;99442.75;;;6.27;100.00
5283;BME280;15376;48.540;9.268;2023-02-13T09:23:26;99426.31;;;6.84;100.00
5283;BME280;15376;48.540;9.268;2023-02-13T09:25:51;99453.06;;;7.62;100.00
5283;BME280;15376;48.540;9.268;2023-02-13T09:28:16;99426.31;;;7.78;94.67
5283;BME280;15376;48.540;9.268;2023-02-13T09:30:42;99458.16;;;9.11;86.37
5283;BME280;15376;48.540;9.268;2023-02-13T09:33:10;99451.50;;;9.48;81.62
5283;BME280;15376;48.540;9.268;2023-02-13T09:35:38;99450.00;;;10.98;77.58
5283;BME280;15376;48.540;9.268;2023-02-13T09:38:06;99436.06;;;11.44;72.85
5283;BME280;15376;48.540;9.268;2023-02-13T09:40:38;99445.53;;;12.42;66.83
5283;BME280;15376;48.540;9.268;2023-02-13T09:43:12;99447.97;;;13.35;62.94
5283;BME280;15376;48.540;9.268;2023-02-13T09:45:39;99464.00;;;14.22;59.81
5283;BME280;15376;48.540;9.268;2023-02-13T09:48:10;99461.91;;;14.34;56.79
5283;BME280;15376;48.540;9.268;2023-02-13T09:50:39;99464.75;;;14.32;54.26
5283;BME280;15376;48.540;9.268;2023-02-13T09:53:05;99465.22;;;13.58;53.58
5283;BME280;15376;48.540;9.268;2023-02-13T09:55:47;99458.88;;;14.29;53.79
5283;BME280;15376;48.540;9.268;2023-02-13T10:01:02;99459.25;;;15.10;51.94
5283;BME280;15376;48.540;9.268;2023-02-13T10:06:05;99462.16;;;16.14;48.60
5283;BME280;15376;48.540;9.268;2023-02-13T10:16:37;99467.69;;;16.84;43.70
5283;BME280;15376;48.540;9.268;2023-02-13T10:21:59;99471.97;;;14.14;48.30
5283;BME280;15376;48.540;9.268;2023-02-13T10:24:40;99469.94;;;11.81;55.04
5283;BME280;15376;48.540;9.268;2023-02-13T10:38:20;99463.56;;;7.05;81.16
5283;BME280;15376;48.540;9.268;2023-02-13T10:58:00;99419.03;;;5.24;100.00
5283;BME280;15376;48.540;9.268;2023-02-13T11:03:15;99432.75;;;5.29;100.00
5283;BME280;15376;48.540;9.268;2023-02-13T11:05:42;99428.13;;;5.33;100.00
5283;BME280;15376;48.540;9.268;2023-02-13T11:08:31;99427.31;;;5.45;100.00
5283;BME280;15376;48.540;9.268;2023-02-13T11:11:00;99422.69;;;5.49;100.00
5283;BME280;15376;48.540;9.268;2023-02-13T11:13:27;99423.53;;;5.49;100.00
5283;BME280;15376;48.540;9.268;2023-02-13T11:16:03;99427.44;;;5.56;100.00
5283;BME280;15376;48.540;9.268;2023-02-13T11:18:34;99403.50;;;5.47;100.00
5283;BME280;15376;48.540;9.268;2023-02-13T11:21:07;99407.72;;;5.49;100.00
5283;BME280;15376;48.540;9.268;2023-02-13T11:23:53;99415.50;;;5.63;100.00
5283;BME280;15376;48.540;9.268;2023-02-13T11:26:35;99411.94;;;5.64;100.00
5283;BME280;15376;48.540;9.268;2023-02-13T11:29:05;99402.53;;;5.60;100.00
5283;BME280;15376;48.540;9.268;2023-02-13T11:31:40;99412.78;;;5.52;100.00
5283;BME280;15376;48.540;9.268;2023-02-13T11:34:23;99408.34;;;5.78;100.00
5283;BME280;15376;48.540;9.268;2023-02-13T11:36:51;99409.59;;;5.60;100.00
5283;BME280;15376;48.540;9.268;2023-02-13T11:39:19;99395.69;;;5.70;100.00
5283;BME280;15376;48.540;9.268;2023-02-13T11:41:46;99392.16;;;5.97;100.00
5283;BME280;15376;48.540;9.268;2023-02-13T11:44:30;99407.53;;;6.16;100.00
5283;BME280;15376;48.540;9.268;2023-02-13T11:47:00;99404.78;;;6.05;100.00
5283;BME280;15376;48.540;9.268;2023-02-13T11:49:29;99389.38;;;6.11;100.00
5283;BME280;15376;48.540;9.268;2023-02-13T11:51:59;99385.56;;;6.15;100.00
5283;BME280;15376;48.540;9.268;2023-02-13T11:54:29;99399.69;;;6.40;100.00
5283;BME280;15376;48.540;9.268;2023-02-13T11:59:50;99378.09;;;6.46;98.89
5283;BME280;15376;48.540;9.268;2023-02-13T12:05:13;99391.81;;;6.51;98.59
5283;BME280;15376;48.540;9.268;2023-02-13T12:07:40;99391.59;;;6.54;98.21
5283;BME280;15376;48.540;9.268;2023-02-13T12:10:22;99393.78;;;6.60;97.76
5283;BME280;15376;48.540;9.268;2023-02-13T12:12:57;99391.44;;;6.68;97.44
5283;BME280;15376;48.540;9.268;2023-02-13T12:15:28;99393.34;;;6.66;96.62
5283;BME280;15376;48.540;9.268;2023-02-13T12:23:46;99386.44;;;6.76;97.21
5283;BME280;15376;48.540;9.268;2023-02-13T12:26:19;99385.25;;;6.80;97.90
5283;BME280;15376;48.540;9.268;2023-02-13T12:31:41;99380.31;;;6.76;97.42
5283;BME280;15376;48.540;9.268;2023-02-13T12:39:58;99363.25;;;6.68;97.76
5283;BME280;15376;48.540;9.268;2023-02-13T12:42:49;99364.53;;;6.63;97.02
5283;BME280;15376;48.540;9.268;2023-02-13T12:48:40;99373.25;;;6.76;97.19
5283;BME280;15376;48.540;9.268;2023-02-13T12:52:18;99370.00;;;6.73;98.38
5283;BME280;15376;48.540;9.268;2023-02-13T12:54:32;99358.69;;;6.71;97.89
5283;BME280;15376;48.540;9.268;2023-02-13T13:11:10;99367.50;;;6.82;97.16
5283;BME280;15376;48.540;9.268;2023-02-13T13:16:53;99362.31;;;6.81;96.50
5283;BME280;15376;48.540;9.268;2023-02-13T13:19:45;99370.38;;;6.79;96.25
5283;BME280;15376;48.540;9.268;2023-02-13T13:22:33;99353.69;;;6.79;96.06
5283;BME280;15376;48.540;9.268;2023-02-13T13:27:43;99339.19;;;6.60;96.60
5283;BME280;15376;48.540;9.268;2023-02-13T13:30:23;99341.94;;;6.59;96.83
5283;BME280;15376;48.540;9.268;2023-02-13T13:33:26;99340.03;;;6.61;96.78
5283;BME280;15376;48.540;9.268;2023-02-13T13:35:59;99347.75;;;6.64;97.58
5283;BME280;15376;48.540;9.268;2023-02-13T13:49:54;99352.44;;;6.48;97.95
5283;BME280;15376;48.540;9.268;2023-02-13T13:52:36;99341.78;;;6.49;98.03
5283;BME280;15376;48.540;9.268;2023-02-13T13:55:03;99343.34;;;6.52;97.00
5283;BME280;15376;48.540;9.268;2023-02-13T14:02:44;99343.63;;;6.60;96.10
5283;BME280;15376;48.540;9.268;2023-02-13T14:05:28;99345.31;;;6.61;95.89
5283;BME280;15376;48.540;9.268;2023-02-13T14:07:59;99335.09;;;6.56;95.79
5283;BME280;15376;48.540;9.268;2023-02-13T14:21:03;99342.06;;;6.57;96.83
5283;BME280;15376;48.540;9.268;2023-02-13T14:23:31;99346.78;;;6.65;96.57
5283;BME280;15376;48.540;9.268;2023-02-13T14:26:10;99348.47;;;6.66;96.73
5283;BME280;15376;48.540;9.268;2023-02-13T14:28:36;99346.91;;;6.63;96.26
5283;BME280;15376;48.540;9.268;2023-02-13T14:33:57;99330.59;;;6.46;96.99
5283;BME280;15376;48.540;9.268;2023-02-13T14:36:28;99329.31;;;6.51;96.18
5283;BME280;15376;48.540;9.268;2023-02-13T14:39:00;99320.38;;;6.41;96.70
5283;BME280;15376;48.540;9.268;2023-02-13T14:41:57;99345.97;;;6.52;97.46
5283;BME280;15376;48.540;9.268;2023-02-13T14:44:25;99340.09;;;6.48;97.34
5283;BME280;15376;48.540;9.268;2023-02-13T14:46:55;99330.09;;;6.41;98.22
5283;BME280;15376;48.540;9.268;2023-02-13T14:49:29;99340.63;;;6.41;98.62
5283;BME280;15376;48.540;9.268;2023-02-13T14:51:58;99327.91;;;6.34;98.23
5283;BME280;15376;48.540;9.268;2023-02-13T14:54:32;99348.56;;;6.41;99.10
5283;BME280;15376;48.540;9.268;2023-02-13T14:59:32;99342.56;;;6.39;98.85
5283;BME280;15376;48.540;9.268;2023-02-13T15:02:11;99334.25;;;6.32;99.34
5283;BME280;15376;48.540;9.268;2023-02-13T15:04:54;99347.13;;;6.37;99.61
5283;BME280;15376;48.540;9.268;2023-02-13T15:07:43;99325.34;;;6.09;100.00
5283;BME280;15376;48.540;9.268;2023-02-13T15:10:26;99345.38;;;6.12;100.00
5283;BME280;15376;48.540;9.268;2023-02-13T15:12:58;99345.19;;;6.02;100.00
5283;BME280;15376;48.540;9.268;2023-02-13T15:15:30;99345.44;;;5.99;100.00
5283;BME280;15376;48.540;9.268;2023-02-13T15:18:00;99343.44;;;5.90;100.00
5283;BME280;15376;48.540;9.268;2023-02-13T15:20:29;99336.66;;;5.86;100.00
5283;BME280;15376;48.540;9.268;2023-02-13T15:22:57;99338.97;;;5.78;100.00
5283;BME280;15376;48.540;9.268;2023-02-13T15:25:35;99341.09;;;5.73;100.00
5283;BME280;15376;48.540;9.268;2023-02-13T15:28:16;99334.53;;;5.65;100.00
5283;BME280;15376;48.540;9.268;2023-02-13T15:31:01;99324.03;;;5.53;100.00
5283;BME280;15376;48.540;9.268;2023-02-13T15:33:48;99325.50;;;5.44;100.00
5283;BME280;15376;48.540;9.268;2023-02-13T15:36:22;99330.78;;;5.44;100.00
5283;BME280;15376;48.540;9.268;2023-02-13T15:38:58;99333.81;;;5.38;100.00
5283;BME280;15376;48.540;9.268;2023-02-13T15:41:28;99322.44;;;5.25;100.00
5283;BME280;15376;48.540;9.268;2023-02-13T15:43:57;99329.94;;;5.18;100.00
5283;BME280;15376;48.540;9.268;2023-02-13T15:46:29;99329.38;;;5.13;100.00
5283;BME280;15376;48.540;9.268;2023-02-13T15:48:57;99330.84;;;5.05;100.00
5283;BME280;15376;48.540;9.268;2023-02-13T15:51:26;99328.81;;;4.95;100.00
5283;BME280;15376;48.540;9.268;2023-02-13T15:54:06;99326.38;;;4.92;100.00
5283;BME280;15376;48.540;9.268;2023-02-13T15:56:32;99325.19;;;4.84;100.00
5283;BME280;15376;48.540;9.268;2023-02-13T15:58:59;99328.56;;;4.73;100.00
5283;BME280;15376;48.540;9.268;2023-02-13T16:01:27;99332.53;;;4.66;100.00